createdAt,value
2022-11-17T02:25:50.947Z,10.30
2022-11-17T02:28:26.117Z,10.53
2022-11-17T02:31:07.745Z,10.83
2022-11-17T02:34:02.738Z,10.17
2022-11-17T02:36:36.055Z,10.27
2022-11-17T02:39:20.063Z,10.30
2022-11-17T02:41:46.579Z,11.20
2022-11-17T02:44:21.612Z,10.13
2022-11-17T02:47:15.854Z,11.17
2022-11-17T02:49:49.890Z,10.47
2022-11-17T02:52:18.560Z,10.23
2022-11-17T02:55:02.912Z,10.17
2022-11-17T02:57:39.774Z,9.30
2022-11-17T03:00:11.179Z,9.83
2022-11-17T03:03:02.814Z,8.83
2022-11-17T03:05:35.840Z,7.83
2022-11-17T03:08:20.938Z,7.70
2022-11-17T03:10:47.642Z,7.07
2022-11-17T03:13:21.445Z,8.60
2022-11-17T03:15:57.284Z,8.77
2022-11-17T03:18:30.673Z,9.07
2022-11-17T03:21:08.193Z,10.30
2022-11-17T03:23:45.359Z,10.40
2022-11-17T03:26:14.019Z,10.33
2022-11-17T03:28:42.861Z,8.77
2022-11-17T03:31:11.399Z,9.27
2022-11-17T07:56:24.705Z,8.10
2022-11-17T07:58:51.359Z,8.37
2022-11-17T08:01:18.030Z,8.60
2022-11-17T08:03:44.839Z,8.57
2022-11-17T08:06:11.599Z,8.43
2022-11-17T08:08:39.222Z,8.30
2022-11-17T08:11:11.555Z,8.73
2022-11-17T08:13:39.687Z,9.20
2022-11-17T08:16:07.463Z,9.40
2022-11-17T08:18:34.749Z,9.87
2022-11-17T08:21:13.799Z,8.80
2022-11-17T08:23:41.132Z,8.47
2022-11-17T08:26:09.929Z,9.03
2022-11-17T08:31:27.289Z,8.77
2022-11-17T08:33:53.872Z,8.53
2022-11-17T08:36:20.494Z,8.87
2022-11-17T08:38:47.051Z,8.27
2022-11-17T08:41:13.772Z,9.20
2022-11-17T08:43:40.451Z,9.53
2022-11-17T08:46:13.915Z,11.17
2022-11-17T08:48:40.669Z,8.93
2022-11-17T08:51:08.577Z,9.27
2022-11-17T08:53:35.584Z,8.67
2022-11-17T08:56:02.179Z,8.50
2022-11-17T08:58:28.785Z,8.30
2022-11-17T09:00:57.597Z,8.33
2022-11-17T09:03:26.330Z,8.37
2022-11-17T09:05:53.141Z,8.00
2022-11-17T09:08:55.912Z,8.63
2022-11-17T09:11:08.097Z,8.80
2022-11-17T09:13:36.187Z,8.90
2022-11-17T09:16:10.504Z,9.27
2022-11-17T09:18:38.840Z,9.13
2022-11-17T09:21:11.078Z,9.00
2022-11-17T09:23:38.099Z,9.30
2022-11-17T09:26:10.181Z,9.20
2022-11-17T09:28:37.288Z,8.60
2022-11-17T09:31:15.362Z,9.13
2022-11-17T09:33:42.919Z,9.30
2022-11-17T09:36:10.972Z,8.43
2022-11-17T09:38:38.404Z,8.73
2022-11-17T09:41:27.867Z,8.67
2022-11-17T09:44:16.277Z,7.67
2022-11-17T09:46:56.404Z,6.90
2022-11-17T09:49:44.182Z,7.07
2022-11-17T09:52:23.329Z,7.23
2022-11-17T09:54:59.713Z,7.03
2022-11-17T09:57:35.477Z,7.07
2022-11-17T10:00:15.141Z,7.20
2022-11-17T10:02:42.897Z,7.23
2022-11-17T10:05:14.209Z,7.87
2022-11-17T10:07:47.413Z,7.10
2022-11-17T10:10:21.825Z,6.20
2022-11-17T10:12:52.558Z,6.87
2022-11-17T10:15:28.761Z,7.07
2022-11-17T10:17:55.399Z,7.20
2022-11-17T10:20:22.022Z,7.07
2022-11-17T10:22:48.722Z,7.23
2022-11-17T10:25:35.078Z,7.60
2022-11-17T10:28:01.836Z,7.97
2022-11-17T10:30:28.370Z,8.67
2022-11-17T10:32:57.169Z,6.20
2022-11-17T10:35:30.668Z,6.20
2022-11-17T10:38:06.820Z,6.43
2022-11-17T10:40:49.231Z,6.53
2022-11-17T10:43:17.235Z,6.70
2022-11-17T10:45:44.902Z,6.30
2022-11-17T10:48:25.582Z,6.70
2022-11-17T10:51:19.296Z,6.63
2022-11-17T10:54:09.175Z,7.03
2022-11-17T10:56:42.053Z,6.70
2022-11-17T10:59:30.693Z,6.73
2022-11-17T11:01:57.685Z,6.47
2022-11-17T11:04:41.478Z,7.13
2022-11-17T11:07:22.373Z,8.10
2022-11-17T11:10:02.697Z,6.97
2022-11-17T11:12:41.692Z,7.10
2022-11-17T11:15:15.396Z,6.87
2022-11-17T11:17:42.034Z,7.13
2022-11-17T11:20:13.714Z,7.83
2022-11-17T11:22:55.843Z,7.33
2022-11-17T11:25:28.569Z,7.57
2022-11-17T11:28:33.570Z,7.97
2022-11-17T11:31:12.246Z,8.23
2022-11-17T11:33:41.907Z,8.17
2022-11-17T11:36:10.132Z,8.70
2022-11-17T11:39:03.787Z,8.43
2022-11-17T11:41:39.620Z,8.13
2022-11-17T11:44:31.610Z,8.10
2022-11-17T11:47:22.599Z,8.73
2022-11-17T11:49:52.982Z,8.30
2022-11-17T11:52:22.257Z,10.80
2022-11-17T11:55:21.724Z,8.40
2022-11-17T11:57:55.226Z,8.57
2022-11-17T12:00:22.048Z,8.10
2022-11-17T12:03:10.298Z,8.53
2022-11-17T12:05:42.041Z,8.50
2022-11-17T12:08:11.069Z,8.20
2022-11-17T12:11:27.024Z,8.40
2022-11-17T12:13:54.670Z,8.33
2022-11-17T12:16:37.064Z,10.30
2022-11-17T12:19:42.429Z,11.53
2022-11-17T12:22:10.352Z,11.30
2022-11-17T12:24:40.698Z,11.73
2022-11-17T12:27:31.372Z,10.93
2022-11-17T12:29:58.046Z,11.47
2022-11-17T12:32:43.394Z,11.40
2022-11-17T12:35:25.285Z,11.63
2022-11-17T12:38:22.405Z,11.63
2022-11-17T12:40:51.078Z,11.70
2022-11-17T12:43:20.676Z,12.13
2022-11-17T12:45:59.270Z,12.30
2022-11-17T12:48:34.772Z,11.37
2022-11-17T12:51:14.036Z,12.33
2022-11-17T12:53:55.865Z,13.00
2022-11-17T12:56:49.875Z,11.30
2022-11-17T12:59:34.732Z,12.17
2022-11-17T13:02:27.675Z,14.93
2022-11-17T13:04:58.768Z,13.30
2022-11-17T13:07:26.800Z,12.77
2022-11-17T13:09:57.068Z,12.70
2022-11-17T13:12:29.171Z,13.17
2022-11-17T13:15:02.568Z,12.97
2022-11-17T13:17:34.607Z,12.17
2022-11-17T13:20:04.073Z,12.30
2022-11-17T13:22:30.945Z,12.00
2022-11-17T13:24:57.899Z,11.47
2022-11-17T13:27:25.847Z,11.90
2022-11-17T13:29:53.671Z,10.87
2022-11-17T13:32:23.060Z,10.93
2022-11-17T13:34:58.071Z,11.57
2022-11-17T13:37:29.727Z,10.53
2022-11-17T13:40:19.911Z,11.90
2022-11-17T13:42:46.863Z,10.93
2022-11-17T13:45:16.870Z,12.50
2022-11-17T13:47:46.605Z,15.63
2022-11-17T13:50:23.509Z,13.20
2022-11-17T13:52:55.218Z,11.27
2022-11-17T13:55:23.371Z,11.30
2022-11-17T13:57:58.949Z,11.20
2022-11-17T14:00:26.179Z,11.43
2022-11-17T14:03:03.187Z,11.23
2022-11-17T14:05:31.669Z,11.87
2022-11-17T14:08:10.609Z,11.53
2022-11-17T14:10:37.941Z,10.93
2022-11-17T14:13:04.485Z,11.03
2022-11-17T14:15:34.599Z,14.00
2022-11-17T14:18:03.798Z,12.23
2022-11-17T14:20:32.704Z,12.20
2022-11-17T14:23:13.421Z,12.90
2022-11-17T14:25:45.167Z,11.70
2022-11-17T14:28:22.914Z,10.70
2022-11-17T14:30:52.556Z,11.70
2022-11-17T14:33:29.745Z,12.73
2022-11-17T14:43:21.187Z,29.67
2022-11-17T14:45:55.352Z,16.20
2022-11-17T14:48:22.359Z,13.73
2022-11-17T14:51:03.169Z,16.23
2022-11-17T14:53:40.665Z,21.47
2022-11-17T14:56:22.191Z,18.47
2022-11-17T14:58:55.082Z,17.53
2022-11-17T15:01:28.363Z,15.53
2022-11-17T15:03:56.777Z,14.03
2022-11-17T15:06:23.799Z,12.93
2022-11-17T15:09:01.900Z,14.93
2022-11-17T15:11:38.098Z,13.47
2022-11-17T15:14:06.647Z,16.57
2022-11-17T15:16:34.036Z,15.73
2022-11-17T15:19:02.304Z,11.47
2022-11-17T15:21:28.882Z,11.33
2022-11-17T15:23:55.546Z,10.57
2022-11-17T15:26:24.758Z,11.93
2022-11-17T15:28:51.340Z,11.73
2022-11-17T15:31:19.260Z,12.80
2022-11-17T15:33:47.242Z,12.90
2022-11-17T15:36:16.589Z,12.07
2022-11-17T15:38:43.261Z,10.80
2022-11-17T15:41:11.444Z,10.47
2022-11-17T15:43:40.222Z,10.53
2022-11-17T15:46:12.124Z,11.83
2022-11-17T15:48:42.198Z,11.70
2022-11-17T15:51:16.895Z,12.37
2022-11-17T15:53:44.717Z,14.47
2022-11-17T15:56:13.345Z,15.93
2022-11-17T15:58:41.178Z,13.00
2022-11-17T16:01:11.949Z,13.53
2022-11-17T16:03:40.230Z,11.87
2022-11-17T16:06:07.322Z,11.63
2022-11-17T16:08:34.388Z,11.67
2022-11-17T16:11:01.330Z,11.13
2022-11-17T16:13:28.023Z,11.13
2022-11-17T16:15:55.186Z,10.83
2022-11-17T16:18:22.158Z,10.80
2022-11-17T16:20:48.925Z,10.77
2022-11-17T16:23:15.714Z,10.87
2022-11-17T16:25:43.702Z,10.87
2022-11-17T16:28:11.053Z,10.23
2022-11-17T16:30:37.679Z,10.43
2022-11-17T16:33:09.751Z,9.60
2022-11-17T16:35:36.316Z,10.00
2022-11-17T16:38:03.089Z,11.23
2022-11-17T16:40:30.741Z,10.20
2022-11-17T16:43:00.587Z,9.33
2022-11-17T16:45:27.291Z,10.13
2022-11-17T16:47:53.862Z,12.63
2022-11-17T16:50:20.523Z,11.33
2022-11-17T16:52:47.096Z,9.77
2022-11-17T16:55:13.680Z,10.07
2022-11-17T16:57:40.252Z,10.80
2022-11-17T17:00:07.583Z,10.23
2022-11-17T17:02:34.776Z,10.07
2022-11-17T17:05:01.397Z,9.67
2022-11-17T17:07:27.970Z,10.90
2022-11-17T17:09:54.535Z,11.70
2022-11-17T17:12:21.698Z,12.07
2022-11-17T17:14:48.242Z,14.27
2022-11-17T17:17:14.810Z,12.80
2022-11-17T17:19:41.424Z,13.20
2022-11-17T17:22:07.969Z,17.87
2022-11-17T17:24:34.763Z,16.83
2022-11-17T17:27:01.326Z,15.07
2022-11-17T17:29:27.870Z,14.13
2022-11-17T17:31:54.451Z,14.33
2022-11-17T17:34:20.986Z,14.80
2022-11-17T17:36:47.531Z,15.00
2022-11-17T17:39:17.770Z,23.33
2022-11-17T17:41:45.835Z,16.37
2022-11-17T17:44:17.179Z,16.93
2022-11-17T17:46:44.510Z,14.40
2022-11-17T17:49:11.472Z,13.33
2022-11-17T17:51:41.684Z,14.27
2022-11-17T17:54:13.663Z,14.70
2022-11-17T17:56:40.247Z,14.67
2022-11-17T17:59:07.179Z,13.70
2022-11-17T18:01:33.827Z,13.33
2022-11-17T18:04:04.721Z,13.60
2022-11-17T18:06:38.749Z,13.30
2022-11-17T18:09:07.047Z,12.70
2022-11-17T18:11:34.038Z,13.23
2022-11-17T18:14:00.646Z,13.97
2022-11-17T18:16:32.205Z,13.80
2022-11-17T18:19:03.971Z,13.50
2022-11-17T18:21:30.646Z,14.27
2022-11-17T18:23:58.557Z,14.50
2022-11-17T18:26:27.194Z,13.90
2022-11-17T18:28:58.624Z,15.27
2022-11-17T18:31:27.395Z,13.73
2022-11-17T18:33:58.584Z,13.83
2022-11-17T18:36:26.532Z,13.60
2022-11-17T18:38:53.632Z,13.23
2022-11-17T18:41:21.533Z,13.27
2022-11-17T18:43:48.591Z,12.83
2022-11-17T18:46:18.361Z,12.23
2022-11-17T18:48:46.773Z,12.53
2022-11-17T18:51:20.204Z,13.00
2022-11-17T18:53:48.318Z,13.17
2022-11-17T18:56:16.599Z,12.97
2022-11-17T18:58:44.606Z,12.80
2022-11-17T19:01:14.600Z,13.53
2022-11-17T19:03:43.518Z,11.77
2022-11-17T19:06:11.446Z,10.60
2022-11-17T19:08:38.641Z,8.80
2022-11-17T19:11:07.198Z,8.97
2022-11-17T19:13:35.881Z,8.23
2022-11-17T19:16:09.654Z,8.43
2022-11-17T19:18:36.579Z,8.47
2022-11-17T19:21:17.795Z,9.30
2022-11-17T19:23:51.061Z,8.50
2022-11-17T19:26:23.693Z,8.83
2022-11-17T19:28:50.808Z,8.30
2022-11-17T19:31:19.306Z,8.47
2022-11-17T19:33:47.058Z,7.83
2022-11-17T19:36:14.499Z,7.60
2022-11-17T19:38:43.050Z,8.07
2022-11-17T19:41:14.850Z,8.73
2022-11-17T19:43:45.427Z,8.03
2022-11-17T19:46:16.631Z,7.63
2022-11-17T19:48:43.833Z,8.07
2022-11-17T19:51:14.356Z,8.13
2022-11-17T19:53:41.235Z,8.33
2022-11-17T19:56:08.420Z,8.53
2022-11-17T19:58:35.038Z,8.27
2022-11-17T20:01:08.281Z,8.70
2022-11-17T20:03:34.968Z,8.03
2022-11-17T20:06:01.734Z,8.70
2022-11-17T20:08:29.793Z,8.63
2022-11-17T20:11:13.724Z,8.87
2022-11-17T20:13:40.493Z,8.50
2022-11-17T20:16:12.217Z,8.20
2022-11-17T20:18:40.420Z,8.60
2022-11-17T20:21:07.718Z,8.90
2022-11-17T20:23:35.224Z,8.43
2022-11-17T20:26:11.124Z,9.23
2022-11-17T20:28:38.566Z,9.40
2022-11-17T20:31:10.265Z,9.17
2022-11-17T20:33:38.149Z,9.57
2022-11-17T20:36:06.049Z,9.47
2022-11-17T20:38:32.747Z,10.50
2022-11-17T20:41:00.156Z,11.70
2022-11-17T20:43:27.165Z,10.70
2022-11-17T20:45:54.880Z,10.60
2022-11-17T20:48:22.417Z,10.50
2022-11-17T20:51:21.978Z,10.20
2022-11-17T20:53:49.458Z,9.97
2022-11-17T20:56:17.031Z,10.03
2022-11-17T20:58:43.673Z,10.70
2022-11-17T21:01:15.324Z,10.87
2022-11-17T21:03:42.435Z,10.33
2022-11-17T21:06:09.100Z,11.10
2022-11-17T21:08:38.093Z,11.40
2022-11-17T21:11:07.387Z,10.60
2022-11-17T21:13:34.771Z,11.97
2022-11-17T21:16:10.944Z,11.13
2022-11-17T21:18:39.205Z,10.87
2022-11-17T21:21:09.207Z,11.00
2022-11-17T21:23:37.252Z,12.10
2022-11-17T21:26:15.174Z,11.93
2022-11-17T21:28:41.830Z,12.27
2022-11-17T21:31:28.625Z,12.93
2022-11-17T21:33:57.273Z,12.40
2022-11-17T21:36:25.571Z,12.63
2022-11-17T21:38:52.530Z,12.83
2022-11-17T21:41:22.056Z,12.73
2022-11-17T21:43:49.983Z,13.60
2022-11-17T21:46:18.801Z,13.40
2022-11-17T21:48:46.437Z,15.97
2022-11-17T21:51:17.264Z,16.17
2022-11-17T21:53:44.631Z,15.73
2022-11-17T21:56:11.573Z,15.83
2022-11-17T21:58:40.322Z,16.43
